Terminal Aerodrome Forecast
Issued by NWS Newport/Morehead City, NC

Home | Current Version | Previous Version | Text Only | Print | Product List | Glossary On
Versions: 1 2 3 4 5 6 7 8 9 10 11 12 13 14 15 16 17 18 19 20 21 22 23 24 25 26
000
FTUS42 KMHX 091731
TAFEWN
TAF
KEWN 091731Z 0918/1018 00000KT P6SM VCTS FEW035CB SCT100
     FM092100 VRB03KT P6SM VCSH SCT030 BKN090
      TEMPO 0921/0924 4SM TS BKN030CB
     FM100000 18004KT P6SM SCT100
     FM101000 00000KT 5SM BR SCT150
     FM101200 00000KT P6SM SCT120=

USA.gov is the U.S. government's official web portal to all federal, state and local government web resources and services.